createdAt,value
2023-05-07T00:01:49.497Z,3.67
2023-05-07T00:04:19.327Z,3.63
2023-05-07T00:06:46.398Z,3.60
2023-05-07T00:09:13.654Z,3.65
2023-05-07T00:11:41.812Z,3.88
2023-05-07T00:14:10.329Z,4.32
2023-05-07T00:16:38.194Z,3.63
2023-05-07T00:19:05.978Z,3.78
2023-05-07T00:21:32.790Z,3.65
2023-05-07T00:23:59.831Z,3.13
2023-05-07T00:26:26.734Z,3.67
2023-05-07T00:28:54.032Z,3.33
2023-05-07T00:31:20.878Z,2.80
2023-05-07T00:33:47.768Z,4.57
2023-05-07T00:36:14.614Z,4.38
2023-05-07T00:38:41.632Z,2.92
2023-05-07T00:41:08.588Z,3.17
2023-05-07T00:43:35.567Z,3.28
2023-05-07T00:46:03.354Z,4.25
2023-05-07T00:48:31.240Z,4.38
2023-05-07T00:50:58.819Z,2.58
2023-05-07T00:53:26.138Z,4.57
2023-05-07T00:55:53.385Z,3.85
2023-05-07T00:58:23.325Z,3.13
2023-05-07T01:00:50.162Z,3.10
2023-05-07T01:03:17.239Z,4.00
2023-05-07T01:05:46.774Z,3.85
2023-05-07T01:08:15.994Z,5.88
2023-05-07T01:10:44.428Z,4.18
2023-05-07T01:13:15.592Z,5.60
2023-05-07T01:15:43.711Z,5.25
2023-05-07T01:18:11.229Z,7.88
2023-05-07T01:20:38.215Z,4.15
2023-05-07T01:23:06.610Z,5.57
2023-05-07T01:25:33.828Z,4.15
2023-05-07T01:28:02.527Z,6.30
2023-05-07T01:30:34.101Z,4.05
2023-05-07T01:33:14.770Z,4.13
2023-05-07T01:35:46.485Z,4.22
2023-05-07T01:38:14.492Z,4.88
2023-05-07T01:40:42.036Z,5.10
2023-05-07T01:43:11.526Z,5.22
2023-05-07T01:45:39.025Z,5.45
2023-05-07T01:48:07.160Z,6.60
2023-05-07T01:50:35.767Z,6.75
2023-05-07T01:53:03.626Z,4.82
2023-05-07T01:55:30.714Z,5.20
2023-05-07T01:57:57.536Z,5.93
2023-05-07T02:00:25.033Z,4.05
2023-05-07T02:02:52.837Z,6.13
2023-05-07T02:05:29.021Z,6.28
2023-05-07T02:08:01.771Z,6.75
2023-05-07T02:10:30.352Z,6.45
2023-05-07T02:12:57.369Z,6.47
2023-05-07T02:15:24.946Z,6.45
2023-05-07T02:18:10.262Z,6.63
2023-05-07T02:20:38.903Z,7.03
2023-05-07T02:23:05.768Z,6.35
2023-05-07T02:25:33.659Z,6.43
2023-05-07T02:28:00.804Z,7.20
2023-05-07T02:30:42.693Z,8.55
2023-05-07T02:33:12.502Z,7.45
2023-05-07T02:35:39.791Z,6.75
2023-05-07T02:38:06.819Z,6.90
2023-05-07T02:40:34.880Z,6.70
2023-05-07T02:43:01.971Z,7.38
2023-05-07T02:45:29.501Z,7.63
2023-05-07T02:47:56.470Z,7.57
2023-05-07T02:50:23.447Z,7.15
2023-05-07T02:52:50.452Z,11.85
2023-05-07T02:55:17.330Z,16.10
2023-05-07T02:57:44.144Z,7.28
2023-05-07T03:00:16.689Z,9.90
2023-05-07T03:02:51.138Z,8.27
2023-05-07T03:05:18.202Z,8.18
2023-05-07T03:07:47.224Z,8.93
2023-05-07T03:10:15.444Z,10.93
2023-05-07T03:12:43.294Z,9.32
2023-05-07T03:15:13.752Z,10.30
2023-05-07T03:17:41.600Z,9.73
2023-05-07T03:20:11.084Z,10.50
2023-05-07T03:22:38.788Z,14.02
2023-05-07T03:25:06.116Z,11.18
2023-05-07T03:27:37.032Z,9.38
2023-05-07T03:30:05.598Z,12.27
2023-05-07T03:32:33.391Z,9.63
2023-05-07T03:35:00.390Z,12.85
2023-05-07T03:37:27.409Z,14.20
2023-05-07T03:39:54.710Z,12.02
2023-05-07T03:42:21.876Z,12.00
2023-05-07T03:44:51.327Z,12.40
2023-05-07T03:47:18.865Z,13.75
2023-05-07T03:49:46.975Z,12.98
2023-05-07T03:52:14.811Z,13.80
2023-05-07T03:54:41.783Z,11.35
2023-05-07T03:57:12.275Z,12.82
2023-05-07T03:59:39.762Z,12.43
2023-05-07T04:02:08.735Z,12.73
2023-05-07T04:04:35.654Z,12.25
2023-05-07T04:07:02.684Z,12.38
2023-05-07T04:09:31.106Z,11.85
2023-05-07T04:11:58.314Z,13.82
2023-05-07T04:14:25.453Z,12.20
2023-05-07T04:16:52.911Z,11.70
2023-05-07T04:19:19.976Z,14.02
2023-05-07T04:21:50.294Z,13.40
2023-05-07T04:24:17.474Z,13.48
2023-05-07T04:26:45.291Z,13.18
2023-05-07T04:29:12.589Z,12.00
2023-05-07T04:31:39.572Z,16.25
2023-05-07T04:34:06.627Z,13.73
2023-05-07T04:36:34.296Z,13.48
2023-05-07T04:39:05.458Z,13.18
2023-05-07T04:41:34.016Z,13.98
2023-05-07T04:44:01.643Z,12.52
2023-05-07T04:46:31.599Z,15.75
2023-05-07T04:48:58.818Z,13.95
2023-05-07T04:51:26.489Z,13.93
2023-05-07T04:53:54.047Z,14.30
2023-05-07T04:56:21.722Z,12.57
2023-05-07T04:58:50.921Z,13.80
2023-05-07T05:01:20.989Z,12.82
2023-05-07T05:03:50.701Z,11.10
2023-05-07T05:06:18.144Z,10.63
2023-05-07T05:08:45.003Z,8.93
2023-05-07T05:11:12.181Z,9.20
2023-05-07T05:13:40.886Z,8.43
2023-05-07T05:16:17.534Z,9.52
2023-05-07T05:18:50.301Z,8.00
2023-05-07T05:21:19.895Z,8.90
2023-05-07T05:23:49.423Z,8.00
2023-05-07T05:26:22.899Z,8.55
2023-05-07T05:28:56.209Z,8.80
2023-05-07T05:31:25.612Z,7.53
2023-05-07T05:33:54.498Z,7.63
2023-05-07T05:36:26.987Z,7.72
2023-05-07T05:38:57.668Z,7.75
2023-05-07T05:41:26.089Z,7.25
2023-05-07T05:44:02.961Z,8.10
2023-05-07T05:46:31.698Z,7.32
2023-05-07T05:48:59.851Z,8.05
2023-05-07T05:51:37.350Z,8.30
2023-05-07T05:54:04.222Z,8.45
2023-05-07T05:56:32.089Z,7.60
2023-05-07T05:58:59.232Z,8.00
2023-05-07T06:01:26.377Z,10.27
2023-05-07T06:03:57.223Z,9.07
2023-05-07T06:06:24.161Z,9.93
2023-05-07T06:08:51.326Z,9.40
2023-05-07T06:11:22.805Z,10.10
2023-05-07T06:13:50.936Z,9.50
2023-05-07T06:16:17.873Z,9.73
2023-05-07T06:18:47.856Z,9.98
2023-05-07T06:21:16.308Z,10.13
2023-05-07T06:23:43.334Z,9.60
2023-05-07T06:26:11.619Z,9.45
2023-05-07T06:28:42.334Z,8.93
2023-05-07T06:31:35.606Z,9.15
2023-05-07T06:34:07.332Z,9.98
2023-05-07T06:36:37.731Z,11.38
2023-05-07T06:39:13.523Z,9.48
2023-05-07T06:41:40.361Z,9.88
2023-05-07T06:44:16.227Z,10.35
2023-05-07T06:46:54.576Z,9.73
2023-05-07T06:49:21.692Z,10.77
2023-05-07T06:51:49.762Z,10.32
2023-05-07T06:54:17.330Z,10.80
2023-05-07T06:56:47.347Z,12.45
2023-05-07T06:59:14.896Z,12.85
2023-05-07T07:01:42.242Z,12.88
2023-05-07T07:04:10.861Z,13.50
2023-05-07T07:06:38.914Z,13.95
2023-05-07T07:09:10.233Z,15.55
2023-05-07T07:11:37.337Z,16.25
2023-05-07T07:14:06.478Z,16.70
2023-05-07T07:16:37.714Z,17.92
2023-05-07T07:19:04.674Z,18.08
2023-05-07T07:21:31.807Z,19.38
2023-05-07T07:23:59.235Z,18.45
2023-05-07T07:26:26.587Z,17.98
2023-05-07T07:28:53.483Z,18.27
2023-05-07T07:31:22.481Z,19.63
2023-05-07T07:33:53.063Z,18.65
2023-05-07T07:36:21.920Z,16.65
2023-05-07T07:38:50.353Z,17.40
2023-05-07T07:41:18.218Z,17.40
2023-05-07T07:43:45.094Z,16.02
2023-05-07T07:46:12.079Z,15.55
2023-05-07T07:48:39.076Z,16.42
2023-05-07T07:51:06.904Z,15.80
2023-05-07T07:53:34.487Z,15.35
2023-05-07T07:56:03.550Z,14.50
2023-05-07T07:58:36.500Z,15.40
2023-05-07T08:01:04.230Z,13.05
2023-05-07T08:03:33.672Z,15.15
2023-05-07T08:06:02.303Z,15.05
2023-05-07T08:08:33.047Z,13.93
2023-05-07T08:11:00.251Z,13.13
2023-05-07T08:13:31.755Z,14.38
2023-05-07T08:15:59.483Z,14.10
2023-05-07T08:18:27.445Z,13.02
2023-05-07T08:20:54.879Z,14.70
2023-05-07T08:23:25.765Z,12.55
2023-05-07T08:25:54.584Z,13.55
2023-05-07T08:28:22.486Z,12.73
2023-05-07T08:30:51.375Z,13.20
2023-05-07T08:33:21.011Z,12.48
2023-05-07T08:35:47.867Z,12.48
2023-05-07T08:38:16.120Z,12.88
2023-05-07T08:40:43.358Z,12.50
2023-05-07T08:45:49.768Z,10.82
2023-05-07T08:48:20.389Z,10.55
2023-05-07T08:50:56.537Z,10.27
2023-05-07T08:53:23.413Z,9.68
2023-05-07T08:55:51.472Z,9.18
2023-05-07T08:58:18.898Z,10.60
2023-05-07T09:00:48.281Z,9.35
2023-05-07T09:03:15.962Z,9.07
2023-05-07T09:05:46.789Z,9.65
2023-05-07T09:08:17.562Z,9.77
2023-05-07T09:10:50.131Z,9.32
2023-05-07T09:13:20.359Z,10.35
2023-05-07T09:15:47.350Z,10.80
2023-05-07T09:18:16.755Z,11.38
2023-05-07T09:20:45.690Z,12.88
2023-05-07T09:23:13.542Z,11.02
2023-05-07T09:25:41.834Z,10.55
2023-05-07T09:28:18.154Z,10.80
2023-05-07T09:30:45.629Z,8.55
2023-05-07T09:33:16.255Z,9.55
2023-05-07T09:38:20.845Z,10.85
2023-05-07T09:41:02.277Z,10.40
2023-05-07T09:43:37.011Z,9.65
2023-05-07T09:46:08.987Z,12.45
2023-05-07T09:48:40.751Z,9.20
2023-05-07T09:51:29.634Z,9.05
2023-05-07T09:54:01.458Z,8.68
2023-05-07T09:56:56.024Z,8.43
2023-05-07T09:59:30.180Z,7.03
2023-05-07T10:02:02.156Z,7.82
2023-05-07T10:04:32.705Z,9.23
2023-05-07T10:07:00.904Z,7.97
2023-05-07T10:09:29.015Z,9.65
2023-05-07T10:11:57.251Z,8.93
2023-05-07T10:14:24.519Z,10.05
2023-05-07T10:16:54.748Z,11.02
2023-05-07T10:22:02.876Z,8.05
2023-05-07T10:24:39.047Z,8.27
2023-05-07T10:27:15.614Z,9.55
2023-05-07T10:30:22.081Z,7.78
2023-05-07T10:32:52.178Z,10.20
2023-05-07T10:35:37.523Z,10.88
2023-05-07T10:38:08.377Z,10.80
2023-05-07T10:40:37.952Z,8.50
2023-05-07T10:43:10.242Z,7.38
2023-05-07T10:45:43.068Z,8.15
2023-05-07T10:48:29.775Z,8.93
2023-05-07T10:51:28.205Z,9.02
2023-05-07T10:54:15.240Z,9.02
2023-05-07T10:56:52.007Z,10.18
2023-05-07T10:59:26.864Z,9.38
2023-05-07T11:02:03.685Z,7.00
2023-05-07T11:04:39.813Z,10.27
2023-05-07T11:07:30.089Z,8.32
2023-05-07T11:10:06.927Z,7.75
2023-05-07T11:13:00.053Z,7.15
2023-05-07T11:15:44.190Z,7.93
2023-05-07T11:18:18.946Z,5.85
2023-05-07T11:20:59.728Z,5.97
2023-05-07T11:23:39.378Z,7.90
2023-05-07T11:26:13.102Z,6.50
2023-05-07T11:28:46.419Z,8.25
2023-05-07T11:31:13.505Z,5.35
2023-05-07T11:33:41.929Z,5.32
2023-05-07T11:36:13.480Z,5.35
2023-05-07T11:38:45.656Z,3.65
2023-05-07T11:41:12.513Z,5.65
2023-05-07T11:43:41.071Z,6.85
2023-05-07T11:46:10.700Z,4.00
2023-05-07T11:48:38.119Z,4.68
2023-05-07T11:51:13.234Z,5.22
2023-05-07T11:53:42.429Z,4.60
2023-05-07T11:56:14.375Z,5.07
2023-05-07T11:58:42.596Z,3.97
2023-05-07T12:01:11.591Z,7.05
2023-05-07T12:03:43.764Z,3.78
2023-05-07T12:06:13.254Z,4.45
2023-05-07T12:08:41.829Z,8.68
2023-05-07T12:11:12.471Z,4.75
2023-05-07T12:13:39.505Z,5.65
2023-05-07T12:16:08.050Z,3.70
2023-05-07T12:18:36.414Z,7.97
2023-05-07T12:21:05.123Z,5.63
2023-05-07T12:23:32.311Z,4.40
2023-05-07T12:26:00.202Z,4.40
2023-05-07T12:28:29.828Z,5.13
2023-05-07T12:30:57.642Z,3.63
2023-05-07T12:33:29.525Z,4.30
2023-05-07T12:35:57.455Z,4.15
2023-05-07T12:38:26.802Z,5.15
2023-05-07T12:40:55.835Z,4.43
2023-05-07T12:43:27.375Z,4.22
2023-05-07T12:46:01.238Z,4.60
2023-05-07T12:48:28.280Z,3.15
2023-05-07T12:50:58.889Z,3.35
2023-05-07T12:53:29.991Z,3.22
2023-05-07T12:55:58.825Z,3.40
2023-05-07T12:58:28.802Z,3.35
2023-05-07T13:01:00.754Z,4.63
2023-05-07T13:03:33.415Z,2.92
2023-05-07T13:06:06.136Z,2.63
2023-05-07T13:08:35.205Z,3.28
2023-05-07T13:11:04.846Z,3.42
2023-05-07T13:13:33.572Z,3.85
2023-05-07T13:16:01.631Z,3.45
2023-05-07T13:18:30.352Z,3.38
2023-05-07T13:20:57.528Z,4.50
2023-05-07T13:23:24.589Z,3.22
2023-05-07T13:25:51.868Z,5.68
2023-05-07T13:28:18.719Z,3.05
2023-05-07T13:30:45.734Z,4.07
2023-05-07T13:33:12.732Z,3.75
2023-05-07T13:35:39.796Z,3.25
2023-05-07T13:38:06.845Z,2.75
2023-05-07T13:40:33.865Z,2.97
2023-05-07T13:43:03.144Z,2.88
2023-05-07T13:45:30.841Z,4.82
2023-05-07T13:47:58.216Z,4.55
2023-05-07T13:50:25.581Z,3.90
2023-05-07T13:52:52.488Z,3.10
2023-05-07T13:55:20.541Z,2.97
2023-05-07T13:57:48.158Z,6.15
2023-05-07T14:00:17.383Z,3.70
2023-05-07T14:02:45.329Z,3.00
2023-05-07T14:05:12.311Z,2.63
2023-05-07T14:07:39.141Z,4.75
2023-05-07T14:10:06.942Z,4.72
2023-05-07T14:12:34.316Z,2.88
2023-05-07T14:15:01.203Z,3.08
2023-05-07T14:17:28.253Z,3.67
2023-05-07T14:19:55.862Z,3.15
2023-05-07T14:22:23.682Z,3.28
2023-05-07T14:25:05.384Z,5.22
2023-05-07T14:27:34.823Z,3.92
2023-05-07T14:30:01.978Z,4.18
2023-05-07T14:32:34.927Z,3.15
2023-05-07T14:35:02.058Z,3.20
2023-05-07T14:37:33.145Z,3.65
2023-05-07T14:40:00.040Z,3.03
2023-05-07T14:42:26.984Z,2.72
2023-05-07T14:44:54.330Z,2.42
2023-05-07T14:47:21.391Z,2.50
2023-05-07T14:49:48.191Z,2.95
2023-05-07T14:52:15.080Z,3.08
2023-05-07T14:54:42.063Z,2.95
2023-05-07T14:57:11.466Z,3.17
2023-05-07T14:59:42.658Z,3.25
2023-05-07T15:02:12.364Z,2.70
2023-05-07T15:04:49.750Z,4.45
2023-05-07T15:07:16.955Z,4.20
2023-05-07T15:09:45.742Z,4.13
2023-05-07T15:12:13.002Z,2.50
2023-05-07T15:14:40.682Z,3.72
2023-05-07T15:17:08.544Z,4.70
2023-05-07T15:19:35.603Z,3.85
2023-05-07T15:22:05.687Z,3.85
2023-05-07T15:24:32.654Z,3.20
2023-05-07T15:26:59.959Z,3.30
2023-05-07T15:29:26.896Z,3.05
2023-05-07T15:31:53.728Z,6.53
2023-05-07T15:34:21.875Z,3.40
2023-05-07T15:36:48.976Z,5.43
2023-05-07T15:39:17.084Z,3.67
2023-05-07T15:41:46.852Z,3.38
2023-05-07T15:44:13.593Z,3.35
2023-05-07T15:46:40.462Z,3.70
2023-05-07T15:49:08.499Z,3.72
2023-05-07T15:51:36.916Z,3.97
2023-05-07T15:54:04.157Z,5.00
2023-05-07T15:56:33.903Z,4.00
2023-05-07T15:59:01.012Z,3.92
2023-05-07T16:01:28.368Z,3.83
2023-05-07T16:03:55.512Z,4.03
2023-05-07T16:06:22.496Z,4.10
2023-05-07T16:08:49.292Z,3.45
2023-05-07T16:11:16.155Z,3.40
2023-05-07T16:13:43.079Z,3.78
2023-05-07T16:16:11.213Z,4.43
2023-05-07T16:18:38.113Z,4.93
2023-05-07T16:21:05.540Z,3.30
2023-05-07T16:23:32.377Z,3.70
2023-05-07T16:25:59.160Z,3.47
2023-05-07T16:28:26.745Z,3.95
2023-05-07T16:30:53.637Z,4.75
2023-05-07T16:33:22.807Z,3.50
2023-05-07T16:35:53.997Z,3.75
2023-05-07T16:38:24.558Z,6.05
2023-05-07T16:40:51.730Z,4.53
2023-05-07T16:43:18.741Z,5.65
2023-05-07T16:45:46.620Z,3.92
2023-05-07T16:48:13.497Z,5.63
2023-05-07T16:50:40.325Z,4.22
2023-05-07T16:53:07.543Z,4.88
2023-05-07T16:55:38.951Z,3.72
2023-05-07T16:58:07.849Z,5.28
2023-05-07T17:00:49.046Z,4.10
2023-05-07T17:03:18.544Z,4.18
2023-05-07T17:05:45.671Z,4.78
2023-05-07T17:08:14.124Z,4.40
2023-05-07T17:10:41.803Z,4.18
2023-05-07T17:13:08.675Z,6.20
2023-05-07T17:15:35.584Z,4.68
2023-05-07T17:18:02.488Z,4.35
2023-05-07T17:20:31.768Z,5.85
2023-05-07T17:22:58.646Z,4.50
2023-05-07T17:25:25.934Z,5.10
2023-05-07T17:27:53.074Z,6.07
2023-05-07T17:30:20.608Z,5.90
2023-05-07T17:32:47.480Z,5.25
2023-05-07T17:35:15.483Z,5.72
2023-05-07T17:37:47.116Z,6.43
2023-05-07T17:40:15.379Z,10.63
2023-05-07T17:42:42.190Z,6.30
2023-05-07T17:45:09.413Z,6.88
2023-05-07T17:47:36.264Z,7.00
2023-05-07T17:50:05.995Z,7.35
2023-05-07T17:52:32.829Z,8.27
2023-05-07T17:54:59.624Z,8.27
2023-05-07T17:57:26.847Z,7.82
2023-05-07T17:59:53.690Z,8.70
2023-05-07T18:02:20.566Z,8.85
2023-05-07T18:04:47.571Z,9.85
2023-05-07T18:07:14.660Z,10.93
2023-05-07T18:09:41.638Z,10.35
2023-05-07T18:12:08.582Z,11.75
2023-05-07T18:14:38.334Z,10.98
2023-05-07T18:17:05.136Z,10.98
2023-05-07T18:19:32.028Z,10.93
2023-05-07T18:21:58.843Z,10.57
2023-05-07T18:24:27.141Z,11.43
2023-05-07T18:26:54.748Z,11.40
2023-05-07T18:29:21.564Z,13.45
2023-05-07T18:31:48.410Z,11.80
2023-05-07T18:34:15.217Z,17.00
2023-05-07T18:36:42.207Z,13.52
2023-05-07T18:39:09.046Z,12.43
2023-05-07T18:41:36.826Z,16.98
2023-05-07T18:44:03.720Z,14.30
2023-05-07T18:46:30.631Z,16.35
2023-05-07T18:48:57.583Z,12.93
2023-05-07T18:51:24.407Z,15.60
2023-05-07T18:53:51.221Z,16.73
2023-05-07T18:56:18.087Z,18.27
2023-05-07T18:58:45.015Z,15.98
2023-05-07T19:01:11.772Z,16.13
2023-05-07T19:03:38.578Z,14.27
2023-05-07T19:06:06.164Z,14.93
2023-05-07T19:08:33.289Z,14.90
2023-05-07T19:11:00.482Z,16.58
2023-05-07T19:13:27.714Z,15.82
2023-05-07T19:15:55.152Z,15.85
2023-05-07T19:18:22.374Z,15.75
2023-05-07T19:20:52.120Z,14.57
2023-05-07T19:23:21.498Z,14.63
2023-05-07T19:25:49.182Z,16.75
2023-05-07T19:28:16.566Z,16.90
2023-05-07T19:30:43.410Z,15.02
2023-05-07T19:33:10.415Z,16.65
2023-05-07T19:35:40.128Z,15.63
2023-05-07T19:38:08.126Z,17.90
2023-05-07T19:40:36.417Z,15.48
2023-05-07T19:43:03.618Z,16.45
2023-05-07T19:45:30.792Z,16.30
2023-05-07T19:47:57.716Z,17.33
2023-05-07T19:50:24.633Z,17.27
2023-05-07T19:52:54.947Z,17.10
2023-05-07T19:55:23.069Z,17.90
2023-05-07T19:57:50.071Z,16.90
2023-05-07T20:00:17.808Z,16.27
2023-05-07T20:02:49.829Z,16.65
2023-05-07T20:05:16.713Z,18.15
2023-05-07T20:07:48.468Z,16.00
2023-05-07T20:10:15.638Z,20.00
2023-05-07T20:12:42.884Z,16.15
2023-05-07T20:15:15.018Z,17.00
2023-05-07T20:17:49.253Z,16.23
2023-05-07T20:20:24.038Z,15.77
2023-05-07T20:22:51.994Z,17.88
2023-05-07T20:25:31.298Z,14.65
2023-05-07T20:27:58.351Z,14.75
2023-05-07T20:30:27.848Z,17.75
2023-05-07T20:32:54.795Z,17.80
2023-05-07T20:35:21.673Z,14.77
2023-05-07T20:37:49.445Z,16.30
2023-05-07T20:40:17.836Z,16.20
2023-05-07T20:42:49.638Z,14.27
2023-05-07T20:45:16.450Z,18.27
2023-05-07T20:47:46.094Z,19.02
2023-05-07T20:50:18.883Z,15.52
2023-05-07T20:52:46.920Z,16.45
2023-05-07T20:55:13.793Z,17.23
2023-05-07T20:57:40.916Z,16.95
2023-05-07T21:00:09.413Z,17.50
2023-05-07T21:02:38.776Z,18.10
2023-05-07T21:05:09.436Z,16.98
2023-05-07T21:07:36.524Z,15.95
2023-05-07T21:10:07.174Z,18.63
2023-05-07T21:12:34.668Z,17.15
2023-05-07T21:15:02.842Z,17.27
2023-05-07T21:17:35.525Z,16.20
2023-05-07T21:20:03.988Z,16.08
2023-05-07T21:22:35.950Z,14.50
2023-05-07T21:25:05.731Z,13.63
2023-05-07T21:27:32.808Z,17.42
2023-05-07T21:30:04.879Z,15.55
2023-05-07T21:32:37.012Z,13.15
2023-05-07T21:35:12.193Z,15.23
2023-05-07T21:37:39.532Z,14.82
2023-05-07T21:40:07.723Z,14.27
2023-05-07T21:42:35.236Z,13.43
2023-05-07T21:45:06.477Z,14.82
2023-05-07T21:47:34.087Z,11.00
2023-05-07T21:50:01.975Z,11.32
2023-05-07T21:52:32.707Z,11.57
2023-05-07T21:55:01.397Z,14.52
2023-05-07T21:57:30.789Z,11.70
2023-05-07T22:00:00.974Z,11.50
2023-05-07T22:02:49.444Z,10.98
2023-05-07T22:05:16.441Z,11.40
2023-05-07T22:07:44.343Z,11.45
2023-05-07T22:10:11.456Z,10.13
2023-05-07T22:12:38.816Z,11.10
2023-05-07T22:15:06.366Z,9.55
2023-05-07T22:17:33.637Z,11.95
2023-05-07T22:20:00.679Z,11.55
2023-05-07T22:22:27.446Z,12.27
2023-05-07T22:24:54.311Z,14.05
2023-05-07T22:27:21.107Z,12.10
2023-05-07T22:29:47.980Z,12.20
2023-05-07T22:32:15.055Z,14.25
2023-05-07T22:34:41.918Z,12.50
2023-05-07T22:37:08.769Z,12.40
2023-05-07T22:39:35.764Z,12.10
2023-05-07T22:42:02.717Z,11.02
2023-05-07T22:44:29.833Z,12.65
2023-05-07T22:46:56.725Z,11.82
2023-05-07T22:49:23.569Z,9.98
2023-05-07T22:51:50.489Z,9.65
2023-05-07T22:54:17.481Z,9.65
2023-05-07T22:56:44.235Z,9.90
2023-05-07T22:59:11.151Z,9.10
2023-05-07T23:01:38.168Z,9.45
2023-05-07T23:04:05.211Z,9.63
2023-05-07T23:06:32.115Z,9.38
2023-05-07T23:08:58.999Z,8.15
2023-05-07T23:11:26.500Z,10.30
2023-05-07T23:13:53.342Z,9.48
2023-05-07T23:16:20.317Z,10.55
2023-05-07T23:18:47.892Z,9.75
2023-05-07T23:21:14.797Z,10.13
2023-05-07T23:23:41.901Z,9.20
2023-05-07T23:26:08.807Z,9.20
2023-05-07T23:28:35.678Z,8.57
2023-05-07T23:31:02.586Z,10.73
2023-05-07T23:33:29.405Z,9.20
2023-05-07T23:36:00.786Z,9.00
2023-05-07T23:38:27.713Z,8.82
2023-05-07T23:40:55.005Z,8.98
2023-05-07T23:43:22.215Z,10.50
2023-05-07T23:45:49.572Z,10.32
2023-05-07T23:48:16.621Z,8.88
2023-05-07T23:50:43.533Z,10.13
2023-05-07T23:53:10.510Z,9.52
2023-05-07T23:55:37.523Z,8.82
2023-05-07T23:58:04.472Z,7.57
